Time;durP1;ratioP1;P1;durP2;ratioP2;P2;SDS_P1;SDS_P2;PMS_P1;PMS_P2;Temp;Humidity;BMP_temperature;BMP_pressure;BME280_temperature;BME280_humidity;BME280_pressure;Samples;Min_cycle;Max_cycle;Signal;HPM_P1;HPM_P2
2023/09/15 00:01:44;;;;;;;3.70;1.75;;;;;;;16.60;50.63;100359.91;4915383;29;20051;-81
2023/09/15 00:04:11;;;;;;;6.60;2.17;;;;;;;16.57;49.95;100358.31;4915355;29;20083;-81
2023/09/15 00:06:39;;;;;;;5.10;2.13;;;;;;;16.54;50.24;100353.22;4915467;29;20047;-80
2023/09/15 00:09:15;;;;;;;3.45;1.77;;;;;;;16.49;50.57;100348.22;4915719;29;20150;-80
2023/09/15 00:11:42;;;;;;;8.65;1.80;;;;;;;16.46;50.58;100355.56;4915256;29;20052;-81
2023/09/15 00:14:10;;;;;;;5.72;1.83;;;;;;;16.41;50.65;100353.28;4915239;29;20091;-83
2023/09/15 00:16:39;;;;;;;8.20;2.00;;;;;;;16.36;50.89;100352.72;4898556;29;20084;-80
2023/09/15 00:19:07;;;;;;;4.68;2.08;;;;;;;16.33;50.75;100347.66;4915280;29;20052;-81
2023/09/15 00:21:34;;;;;;;5.85;1.73;;;;;;;16.30;50.76;100348.72;4915416;29;20058;-80
2023/09/15 00:24:01;;;;;;;4.95;2.28;;;;;;;16.26;50.85;100352.56;4915355;29;20044;-80
2023/09/15 00:26:32;;;;;;;3.90;1.73;;;;;;;16.22;51.31;100349.25;4898651;29;20075;-80
2023/09/15 00:29:02;;;;;;;3.22;2.10;;;;;;;16.18;51.65;100353.09;4915262;29;20055;-80
2023/09/15 00:31:29;;;;;;;5.32;2.38;;;;;;;16.17;51.05;100354.06;4914955;29;20076;-81
2023/09/15 00:33:55;;;;;;;6.18;2.20;;;;;;;16.14;51.16;100348.94;4900559;29;20056;-80
2023/09/15 00:36:22;;;;;;;4.13;2.35;;;;;;;16.11;51.32;100346.53;4919093;29;20052;-83
2023/09/15 00:38:49;;;;;;;4.15;2.05;;;;;;;16.08;51.28;100352.91;4902224;29;20161;-81
2023/09/15 00:41:15;;;;;;;4.68;2.20;;;;;;;16.05;51.34;100350.47;4918940;29;20060;-80
2023/09/15 00:43:42;;;;;;;4.82;2.75;;;;;;;16.04;51.52;100346.13;4901752;29;20058;-81
2023/09/15 00:46:11;;;;;;;3.20;2.15;;;;;;;16.00;52.16;100342.81;4918654;29;20048;-80
2023/09/15 00:48:39;;;;;;;5.97;2.55;;;;;;;15.99;51.91;100346.44;4902134;29;20084;-83
2023/09/15 00:51:07;;;;;;;5.05;2.50;;;;;;;15.98;51.85;100341.22;4918888;29;20134;-80
2023/09/15 00:53:38;;;;;;;7.32;2.55;;;;;;;15.97;52.27;100345.72;4901521;29;20062;-80
2023/09/15 00:56:08;;;;;;;8.57;2.63;;;;;;;15.98;52.09;100347.41;4918690;29;20139;-83
2023/09/15 00:58:38;;;;;;;8.07;2.33;;;;;;;15.98;52.15;100339.44;4918667;29;20544;-80
2023/09/15 01:01:06;;;;;;;6.05;2.28;;;;;;;15.99;51.99;100337.59;4918370;29;20048;-80
2023/09/15 01:03:37;;;;;;;5.35;2.40;;;;;;;15.98;52.58;100335.91;4918317;29;20058;-80
2023/09/15 01:06:06;;;;;;;6.68;2.17;;;;;;;15.99;52.31;100341.13;4901740;29;20505;-81
2023/09/15 01:08:34;;;;;;;4.65;2.70;;;;;;;15.99;52.31;100338.47;4918416;29;20052;-81
2023/09/15 01:11:04;;;;;;;5.97;2.58;;;;;;;16.00;52.34;100336.69;4918290;29;20060;-81
2023/09/15 01:13:32;;;;;;;5.15;2.72;;;;;;;15.99;52.59;100327.84;4918363;29;20044;-81
2023/09/15 01:16:14;;;;;;;4.90;2.50;;;;;;;15.96;53.24;100330.72;4918214;29;20083;-81
2023/09/15 01:18:58;;;;;;;7.38;2.70;;;;;;;15.96;53.13;100330.72;4918391;29;20517;-82
2023/09/15 01:21:40;;;;;;;7.43;2.25;;;;;;;15.97;53.24;100331.56;4918245;29;20052;-82
2023/09/15 01:24:29;;;;;;;5.38;2.40;;;;;;;15.95;53.09;100329.03;4917981;29;20419;-82
2023/09/15 01:27:06;;;;;;;4.53;2.08;;;;;;;15.97;52.99;100326.25;4918357;29;20091;-82
2023/09/15 01:29:53;;;;;;;4.95;1.98;;;;;;;15.94;53.20;100322.03;4918148;29;20055;-80
2023/09/15 01:32:22;;;;;;;5.15;2.53;;;;;;;15.97;52.38;100318.28;4901153;29;20048;-81
2023/09/15 01:34:51;;;;;;;5.65;2.28;;;;;;;15.94;52.69;100314.06;4917948;29;20052;-80
2023/09/15 01:37:19;;;;;;;4.07;2.22;;;;;;;15.92;52.72;100317.75;4918084;29;20087;-82
2023/09/15 01:39:46;;;;;;;4.32;2.20;;;;;;;15.90;52.79;100313.38;4918091;29;20123;-83
2023/09/15 01:42:13;;;;;;;5.53;2.90;;;;;;;15.89;52.93;100300.22;4917596;29;20048;-80
2023/09/15 01:44:39;;;;;;;6.68;2.60;;;;;;;15.89;52.97;100303.72;4917379;29;20099;-80
2023/09/15 01:47:08;;;;;;;4.78;2.55;;;;;;;15.87;53.34;100303.00;4901172;29;20151;-82
2023/09/15 01:49:37;;;;;;;6.55;2.70;;;;;;;15.87;53.62;100299.47;4917883;29;20048;-80
2023/09/15 01:52:04;;;;;;;5.13;2.25;;;;;;;15.88;53.27;100296.72;4900733;29;20091;-80
2023/09/15 01:54:31;;;;;;;5.63;2.35;;;;;;;15.89;53.55;100295.75;4917573;29;20155;-82
2023/09/15 01:56:58;;;;;;;4.28;2.22;;;;;;;15.90;53.27;100293.97;4917507;29;20062;-80
2023/09/15 01:59:24;;;;;;;5.25;2.53;;;;;;;15.90;53.15;100284.16;4917555;29;20062;-80
2023/09/15 02:01:51;;;;;;;5.90;2.55;;;;;;;15.91;53.14;100293.00;4917377;29;20600;-80
2023/09/15 02:04:17;;;;;;;6.10;2.90;;;;;;;15.92;53.48;100291.19;4917209;29;20201;-81
2023/09/15 02:06:44;;;;;;;4.18;2.40;;;;;;;15.92;53.53;100284.06;4917229;29;20052;-81
2023/09/15 02:09:14;;;;;;;9.23;2.67;;;;;;;15.90;53.72;100283.34;4900519;29;20052;-80
2023/09/15 02:11:40;;;;;;;6.15;2.10;;;;;;;15.93;53.01;100288.44;4917206;29;20485;-80
2023/09/15 02:14:07;;;;;;;5.93;2.47;;;;;;;15.94;53.47;100289.25;4917223;29;20048;-80
2023/09/15 02:16:33;;;;;;;6.13;2.30;;;;;;;15.94;53.05;100292.81;4917327;29;20063;-80
2023/09/15 02:19:00;;;;;;;5.32;2.30;;;;;;;15.95;53.37;100289.19;4917274;29;20052;-82
2023/09/15 02:21:27;;;;;;;9.38;2.40;;;;;;;15.96;53.58;100295.38;4917166;29;20413;-81
2023/09/15 02:23:53;;;;;;;5.53;2.35;;;;;;;15.97;53.49;100289.94;4917002;29;20062;-82
2023/09/15 02:26:21;;;;;;;5.30;2.40;;;;;;;15.97;53.69;100291.75;4917179;29;20052;-80
2023/09/15 02:28:47;;;;;;;4.93;2.05;;;;;;;15.98;53.60;100285.47;4917065;29;20504;-80
2023/09/15 02:31:14;;;;;;;3.65;2.00;;;;;;;15.97;53.60;100289.94;4900328;29;20056;-80
2023/09/15 02:33:41;;;;;;;4.13;2.00;;;;;;;15.98;53.54;100285.47;4916697;29;20051;-83
2023/09/15 02:36:07;;;;;;;5.50;2.20;;;;;;;15.97;53.66;100295.25;4916858;29;20052;-80
2023/09/15 02:38:34;;;;;;;6.50;2.05;;;;;;;15.96;53.60;100280.25;4916747;29;20143;-81
2023/09/15 02:41:01;;;;;;;5.82;2.28;;;;;;;15.96;53.54;100279.44;4916749;29;20056;-80
2023/09/15 02:43:27;;;;;;;6.32;2.53;;;;;;;15.96;53.88;100282.91;4899793;29;20404;-80
2023/09/15 02:45:54;;;;;;;5.57;1.98;;;;;;;15.95;53.86;100277.72;4916910;29;20151;-83
2023/09/15 02:48:21;;;;;;;4.63;2.15;;;;;;;15.93;53.76;100275.16;4899844;29;20048;-80
2023/09/15 02:50:48;;;;;;;5.85;2.55;;;;;;;15.94;53.73;100276.00;4916538;29;20056;-80
2023/09/15 02:53:14;;;;;;;2.92;1.80;;;;;;;15.94;53.69;100274.22;4899262;29;20088;-83
2023/09/15 02:55:41;;;;;;;4.95;2.35;;;;;;;15.93;53.54;100279.63;4915900;29;20080;-82
2023/09/15 02:58:07;;;;;;;9.85;2.38;;;;;;;15.94;53.50;100273.34;4899721;29;20052;-81
2023/09/15 03:00:34;;;;;;;5.90;2.63;;;;;;;15.93;53.51;100271.66;4916516;29;20509;-80
2023/09/15 03:03:02;;;;;;;4.38;2.20;;;;;;;15.93;53.69;100275.16;4915942;29;20083;-80
2023/09/15 03:05:30;;;;;;;8.77;2.08;;;;;;;15.93;53.60;100277.81;4916217;29;20501;-82
2023/09/15 03:07:57;;;;;;;7.85;2.40;;;;;;;15.92;53.73;100275.28;4899468;29;20405;-80
2023/09/15 03:10:23;;;;;;;6.55;1.98;;;;;;;15.90;53.93;100270.88;4899811;29;20134;-82
2023/09/15 03:12:51;;;;;;;4.97;1.95;;;;;;;15.90;53.87;100265.59;4915993;29;20505;-81
2023/09/15 03:15:18;;;;;;;4.80;1.95;;;;;;;15.89;53.83;100260.41;4899370;29;20107;-80
2023/09/15 03:17:44;;;;;;;4.05;2.05;;;;;;;15.88;53.97;100262.19;4916282;29;20066;-81
2023/09/15 03:20:15;;;;;;;5.55;1.70;;;;;;;15.87;53.72;100263.16;4916447;29;20135;-80
2023/09/15 03:22:43;;;;;;;5.38;1.73;;;;;;;15.87;53.80;100262.31;4899190;29;20062;-84
2023/09/15 03:25:10;;;;;;;4.07;1.80;;;;;;;15.86;53.96;100265.94;4916408;29;20052;-80
2023/09/15 03:27:37;;;;;;;8.82;1.80;;;;;;;15.86;53.94;100253.47;4899103;29;20088;-81
2023/09/15 03:30:04;;;;;;;5.25;2.05;;;;;;;15.85;54.26;100264.25;4915995;29;20044;-81
2023/09/15 03:32:31;;;;;;;3.72;1.65;;;;;;;15.83;54.13;100248.41;4915755;29;20462;-81
2023/09/15 03:34:58;;;;;;;3.17;1.73;;;;;;;15.83;54.23;100255.53;4915833;29;20135;-81
2023/09/15 03:37:25;;;;;;;5.22;2.08;;;;;;;15.82;54.20;100259.13;4899158;29;20052;-82
2023/09/15 03:39:52;;;;;;;2.50;1.55;;;;;;;15.81;54.14;100250.31;4899118;29;20056;-81
2023/09/15 03:42:19;;;;;;;4.65;1.67;;;;;;;15.81;54.03;100245.00;4915583;29;20170;-80
2023/09/15 03:44:45;;;;;;;5.82;1.90;;;;;;;15.80;54.10;100253.06;4915723;29;20059;-82
2023/09/15 03:47:12;;;;;;;6.07;1.38;;;;;;;15.79;54.17;100246.94;4915857;29;20097;-81
2023/09/15 03:49:38;;;;;;;6.28;1.45;;;;;;;15.77;54.25;100249.69;4898943;29;20508;-81
2023/09/15 03:52:05;;;;;;;4.13;1.63;;;;;;;15.77;54.43;100248.84;4915562;29;20052;-80
2023/09/15 03:54:32;;;;;;;6.40;1.88;;;;;;;15.77;54.50;100246.19;4915773;29;20054;-83
2023/09/15 03:56:58;;;;;;;3.78;1.80;;;;;;;15.75;54.37;100243.63;4898590;29;20098;-81
2023/09/15 03:59:25;;;;;;;3.80;1.80;;;;;;;15.74;54.38;100241.94;4915552;29;20055;-80
2023/09/15 04:01:51;;;;;;;5.53;1.92;;;;;;;15.74;54.70;100247.25;4898677;29;20062;-80
2023/09/15 04:04:18;;;;;;;3.78;1.42;;;;;;;15.72;54.47;100243.88;4915484;29;20060;-80
2023/09/15 04:06:44;;;;;;;3.45;1.75;;;;;;;15.70;54.43;100245.78;4915652;29;20064;-81
2023/09/15 04:09:12;;;;;;;6.97;1.80;;;;;;;15.68;54.43;100247.69;4898904;29;20054;-80
2023/09/15 04:11:39;;;;;;;4.45;1.83;;;;;;;15.66;54.54;100249.59;4898714;29;20076;-80
2023/09/15 04:14:07;;;;;;;3.65;1.70;;;;;;;15.62;54.57;100243.66;4898340;29;20268;-80
2023/09/15 04:16:35;;;;;;;6.72;1.52;;;;;;;15.60;54.51;100245.59;4898578;29;20143;-82
2023/09/15 04:19:02;;;;;;;5.88;2.13;;;;;;;15.57;54.62;100248.47;4915956;29;20055;-80
2023/09/15 04:21:29;;;;;;;4.18;1.73;;;;;;;15.53;54.51;100244.31;4915313;29;20052;-80
2023/09/15 04:23:55;;;;;;;6.15;2.60;;;;;;;15.49;54.37;100241.03;4915261;29;20147;-83
2023/09/15 04:26:22;;;;;;;6.85;2.50;;;;;;;15.45;54.67;100241.34;4915405;29;20058;-80
2023/09/15 04:28:48;;;;;;;4.68;2.30;;;;;;;15.38;54.73;100240.94;4915399;29;20131;-81
2023/09/15 04:31:15;;;;;;;6.68;2.42;;;;;;;15.33;54.81;100243.06;4915520;29;20068;-81
2023/09/15 04:33:41;;;;;;;6.85;2.65;;;;;;;15.29;54.77;100239.75;4915256;29;20087;-80
2023/09/15 04:36:08;;;;;;;5.15;2.40;;;;;;;15.26;55.03;100241.78;4915588;29;20052;-80
2023/09/15 04:38:34;;;;;;;5.35;2.45;;;;;;;15.22;54.99;100239.34;4915211;29;20135;-82
2023/09/15 04:41:01;;;;;;;8.38;2.30;;;;;;;15.19;54.98;100242.22;4915345;29;20155;-81
2023/09/15 04:43:29;;;;;;;15.43;2.90;;;;;;;15.16;55.01;100237.13;4915210;29;20066;-81
2023/09/15 04:45:57;;;;;;;7.18;2.58;;;;;;;15.13;55.10;100237.31;4915271;29;20139;-81
2023/09/15 04:48:23;;;;;;;5.50;2.45;;;;;;;15.10;55.27;100238.38;4915233;29;20104;-80
2023/09/15 04:50:50;;;;;;;7.45;2.97;;;;;;;15.07;55.38;100238.59;4898931;29;20070;-81
2023/09/15 04:53:16;;;;;;;5.45;2.78;;;;;;;15.04;55.63;100238.81;4898394;29;20407;-81
2023/09/15 04:55:43;;;;;;;7.43;3.42;;;;;;;15.02;55.38;100237.22;4915222;29;20063;-81
2023/09/15 05:06:48;;;;;;;6.10;3.15;;;;;;;14.93;55.27;100244.84;5131549;23;20059;-79
2023/09/15 05:09:20;;;;;;;13.77;3.70;;;;;;;14.90;55.61;100252.13;4894973;29;20425;-78
2023/09/15 05:11:47;;;;;;;11.77;3.83;;;;;;;14.86;55.61;100246.19;4896147;29;20135;-78
2023/09/15 05:14:13;;;;;;;7.45;3.25;;;;;;;14.82;55.72;100252.66;4895694;29;20417;-77
2023/09/15 05:16:40;;;;;;;12.73;3.78;;;;;;;14.79;55.72;100258.16;4895781;29;20049;-77
2023/09/15 05:19:06;;;;;;;9.98;3.55;;;;;;;14.75;56.01;100254.84;4896660;29;20056;-80
2023/09/15 05:21:33;;;;;;;6.32;3.05;;;;;;;14.73;56.20;100254.94;4899179;29;20429;-79
2023/09/15 05:23:59;;;;;;;8.20;3.30;;;;;;;14.72;56.39;100252.38;4898857;29;20132;-78
2023/09/15 05:26:26;;;;;;;7.47;3.65;;;;;;;14.72;56.58;100255.91;4899228;29;20059;-77
2023/09/15 05:28:52;;;;;;;7.00;2.85;;;;;;;14.72;56.63;100247.94;4899120;29;20113;-77
2023/09/15 05:31:23;;;;;;;8.15;3.47;;;;;;;14.74;56.56;100253.16;4898446;29;20084;-77
2023/09/15 05:33:50;;;;;;;11.48;3.53;;;;;;;14.76;56.61;100248.63;4898949;29;20057;-77
2023/09/15 05:36:17;;;;;;;9.63;3.55;;;;;;;14.78;56.79;100256.47;4899115;29;20075;-77
2023/09/15 05:38:43;;;;;;;7.13;3.58;;;;;;;14.78;56.94;100249.38;4882142;29;20049;-76
2023/09/15 05:41:10;;;;;;;7.43;3.58;;;;;;;14.80;56.89;100246.63;4898780;29;20569;-78
2023/09/15 05:43:37;;;;;;;9.02;3.28;;;;;;;14.81;56.99;100251.78;4898583;29;20049;-78
2023/09/15 05:46:03;;;;;;;8.88;3.95;;;;;;;14.84;57.03;100245.47;4898651;29;20139;-77
2023/09/15 05:48:30;;;;;;;9.25;3.92;;;;;;;14.85;57.03;100245.34;4898648;29;20056;-77
2023/09/15 05:50:56;;;;;;;9.35;3.97;;;;;;;14.87;57.00;100239.94;4898849;29;20131;-77
2023/09/15 05:53:23;;;;;;;9.48;4.10;;;;;;;14.89;57.16;100240.69;4898197;29;20501;-78
2023/09/15 05:55:49;;;;;;;9.73;4.43;;;;;;;14.91;57.36;100243.25;4898260;29;20784;-80
2023/09/15 05:58:16;;;;;;;9.00;4.05;;;;;;;14.91;57.25;100244.09;4898730;29;20084;-78
2023/09/15 06:00:43;;;;;;;9.07;3.88;;;;;;;14.92;57.02;100237.81;4898381;29;20084;-77
2023/09/15 06:03:09;;;;;;;10.88;3.97;;;;;;;14.93;57.42;100233.38;4898290;29;20131;-80
2023/09/15 06:05:36;;;;;;;10.43;4.00;;;;;;;14.94;57.16;100232.41;4898537;29;20417;-77
2023/09/15 06:08:08;;;;;;;11.75;3.80;;;;;;;14.95;57.56;100242.09;4898371;29;20049;-77
2023/09/15 06:10:39;;;;;;;8.63;3.92;;;;;;;14.95;58.07;100239.44;4898452;29;20113;-77
2023/09/15 06:13:06;;;;;;;8.82;3.67;;;;;;;14.98;57.65;100240.06;4897983;29;20068;-78
2023/09/15 06:15:34;;;;;;;9.13;3.85;;;;;;;15.01;57.72;100243.44;4881474;29;20049;-77
2023/09/15 06:18:01;;;;;;;6.85;3.70;;;;;;;15.04;57.90;100243.25;4898220;29;20103;-79
2023/09/15 06:20:31;;;;;;;16.00;4.78;;;;;;;15.07;57.81;100238.59;4897756;29;20060;-78
2023/09/15 06:22:57;;;;;;;8.43;3.90;;;;;;;15.11;58.07;100249.84;4897723;29;20060;-78
2023/09/15 06:25:24;;;;;;;9.90;3.85;;;;;;;15.14;57.96;100248.78;4896984;29;20053;-79
2023/09/15 06:27:50;;;;;;;9.15;3.85;;;;;;;15.17;58.23;100249.41;4896875;29;20391;-77
2023/09/15 06:30:17;;;;;;;8.15;4.15;;;;;;;15.22;58.08;100254.41;4896512;29;20064;-80
2023/09/15 06:32:43;;;;;;;6.82;3.45;;;;;;;15.24;58.15;100250.69;4897094;29;20096;-77
2023/09/15 06:35:12;;;;;;;9.93;3.70;;;;;;;15.28;58.17;100256.63;4897307;29;20109;-77
2023/09/15 06:37:40;;;;;;;6.53;3.25;;;;;;;15.32;58.35;100250.16;4897633;29;20117;-77
2023/09/15 06:40:07;;;;;;;7.78;3.60;;;;;;;15.36;58.26;100253.44;4897233;29;20092;-77
2023/09/15 06:42:34;;;;;;;8.88;3.35;;;;;;;15.39;58.26;100249.75;4896841;29;20052;-79
2023/09/15 06:45:01;;;;;;;8.90;3.42;;;;;;;15.43;58.88;100246.75;4880726;29;20056;-77
2023/09/15 06:47:27;;;;;;;8.65;3.78;;;;;;;15.46;58.55;100243.03;4897699;29;20099;-77
2023/09/15 06:49:54;;;;;;;7.40;3.20;;;;;;;15.50;58.63;100244.53;4897542;29;20529;-80
2023/09/15 06:52:21;;;;;;;11.45;3.80;;;;;;;15.56;58.79;100251.22;4897375;29;20079;-77
2023/09/15 06:54:47;;;;;;;8.52;3.75;;;;;;;15.60;58.82;100250.91;4897353;29;20406;-77
2023/09/15 06:57:14;;;;;;;9.43;4.10;;;;;;;15.66;58.75;100249.59;4880846;29;20112;-77
2023/09/15 06:59:40;;;;;;;9.27;4.10;;;;;;;15.71;58.94;100252.81;4897546;29;20085;-80
2023/09/15 07:02:07;;;;;;;11.65;3.78;;;;;;;15.77;59.05;100249.69;4897180;29;20087;-78
2023/09/15 07:04:38;;;;;;;7.60;3.90;;;;;;;15.83;58.94;100244.91;4897413;29;20064;-78
2023/09/15 07:07:05;;;;;;;9.68;4.22;;;;;;;15.87;58.88;100247.25;4897196;29;20048;-77
2023/09/15 07:09:31;;;;;;;8.70;3.55;;;;;;;15.92;59.08;100246.88;4897284;29;20151;-78
2023/09/15 07:11:58;;;;;;;11.13;3.97;;;;;;;15.97;59.03;100247.47;4896880;29;20478;-78
2023/09/15 07:14:25;;;;;;;7.82;3.95;;;;;;;16.02;58.99;100237.34;4897293;29;20481;-78
2023/09/15 07:16:51;;;;;;;6.68;3.72;;;;;;;16.07;59.08;100242.31;4897277;29;20124;-78
2023/09/15 07:19:18;;;;;;;6.13;3.53;;;;;;;16.14;59.04;100240.06;4880490;29;20088;-79
2023/09/15 07:21:45;;;;;;;6.70;3.60;;;;;;;16.21;58.99;100238.66;4896904;29;20453;-79
2023/09/15 07:24:11;;;;;;;7.63;3.42;;;;;;;16.27;58.88;100237.38;4896765;29;20120;-78
2023/09/15 07:26:38;;;;;;;4.93;3.45;;;;;;;16.34;58.99;100232.44;4880294;29;20057;-79
2023/09/15 07:29:05;;;;;;;6.88;3.60;;;;;;;16.44;58.98;100238.78;4897024;29;20167;-78
2023/09/15 07:31:35;;;;;;;8.60;3.90;;;;;;;16.48;59.28;100234.91;4896844;29;20052;-77
2023/09/15 07:34:02;;;;;;;7.25;3.67;;;;;;;16.57;58.76;100237.84;4896797;29;20139;-77
2023/09/15 07:36:30;;;;;;;4.57;3.05;;;;;;;16.63;58.63;100229.44;4896623;29;20498;-79
2023/09/15 07:38:56;;;;;;;8.80;3.88;;;;;;;16.70;58.66;100222.69;4896963;29;20115;-80
2023/09/15 07:41:24;;;;;;;8.00;3.83;;;;;;;16.76;58.43;100230.22;4896278;29;20060;-79
2023/09/15 07:43:53;;;;;;;10.65;3.38;;;;;;;16.83;58.50;100221.75;4896662;29;20108;-79
2023/09/15 07:46:20;;;;;;;7.13;3.85;;;;;;;16.89;58.25;100231.91;4896613;29;20091;-77
2023/09/15 07:48:47;;;;;;;6.75;3.72;;;;;;;16.95;58.30;100228.81;4896617;29;20493;-78
2023/09/15 07:51:15;;;;;;;7.55;3.72;;;;;;;17.00;58.11;100226.63;4896446;29;20059;-78
2023/09/15 07:53:42;;;;;;;7.85;3.83;;;;;;;17.06;57.94;100231.53;4896537;29;20056;-80
2023/09/15 07:56:09;;;;;;;6.65;3.80;;;;;;;17.13;58.09;100228.38;4896572;29;20451;-76
2023/09/15 07:58:36;;;;;;;6.97;3.95;;;;;;;17.19;58.01;100227.88;4896612;29;20071;-77
2023/09/15 08:01:03;;;;;;;7.18;4.13;;;;;;;17.25;57.92;100231.91;4896526;29;20056;-78
2023/09/15 08:03:30;;;;;;;8.07;4.07;;;;;;;17.30;57.75;100225.25;4896148;29;20557;-77
2023/09/15 08:05:56;;;;;;;9.93;4.53;;;;;;;17.36;57.96;100223.06;4896322;29;20052;-79
2023/09/15 08:08:26;;;;;;;8.10;3.97;;;;;;;17.42;57.56;100230.59;4896523;29;20075;-77
2023/09/15 08:10:52;;;;;;;7.97;4.45;;;;;;;17.47;57.34;100223.09;4896495;29;20170;-78
2023/09/15 08:13:19;;;;;;;5.55;3.75;;;;;;;17.53;57.65;100224.44;4896183;29;20116;-79
2023/09/15 08:15:45;;;;;;;7.40;4.35;;;;;;;17.57;57.50;100220.56;4896216;29;20518;-78
2023/09/15 08:18:12;;;;;;;6.18;4.10;;;;;;;17.62;57.11;100217.50;4896237;29;20052;-77
2023/09/15 08:20:39;;;;;;;5.50;3.78;;;;;;;17.66;57.23;100219.81;4896236;29;20383;-77
2023/09/15 08:23:05;;;;;;;5.45;4.10;;;;;;;17.72;57.32;100218.47;4879343;29;20692;-77
2023/09/15 08:25:32;;;;;;;11.23;4.30;;;;;;;17.77;57.43;100210.97;4896350;29;20088;-80
2023/09/15 08:27:59;;;;;;;5.72;3.65;;;;;;;17.82;57.70;100210.59;4878992;29;20124;-77
2023/09/15 08:30:26;;;;;;;7.75;3.88;;;;;;;17.87;57.64;100210.22;4895551;29;20055;-77
2023/09/15 08:32:52;;;;;;;5.70;3.60;;;;;;;17.92;57.59;100208.88;4895138;29;20537;-78
2023/09/15 08:35:19;;;;;;;7.40;4.43;;;;;;;17.98;57.25;100196.88;4895711;29;20057;-77
2023/09/15 08:37:46;;;;;;;8.40;4.53;;;;;;;18.04;57.45;100206.19;4895698;29;20104;-77
2023/09/15 08:40:12;;;;;;;4.38;3.53;;;;;;;18.09;57.26;100188.88;4895574;29;20102;-80
2023/09/15 08:42:39;;;;;;;6.32;3.80;;;;;;;18.16;57.09;100193.72;4895253;29;20053;-79
2023/09/15 08:45:07;;;;;;;7.65;4.18;;;;;;;18.22;57.19;100196.72;4895368;29;20095;-77
2023/09/15 08:47:38;;;;;;;6.65;3.60;;;;;;;18.27;57.35;100196.34;4895396;29;20097;-79
2023/09/15 08:50:05;;;;;;;9.00;3.75;;;;;;;18.35;57.57;100203.69;4895487;29;20059;-77
2023/09/15 08:52:33;;;;;;;7.53;4.05;;;;;;;18.40;57.00;100206.84;4895315;29;20053;-79
2023/09/15 08:55:01;;;;;;;7.53;3.58;;;;;;;18.47;56.90;100208.00;4897704;29;20100;-78
2023/09/15 08:57:33;;;;;;;5.35;3.40;;;;;;;18.52;57.20;100204.97;4898949;29;20053;-77
2023/09/15 09:00:00;;;;;;;8.60;4.10;;;;;;;18.61;56.87;100206.00;4898837;29;20056;-80
2023/09/15 09:02:28;;;;;;;7.70;3.92;;;;;;;18.66;56.61;100205.63;4882001;29;20057;-78
2023/09/15 09:04:54;;;;;;;11.55;4.30;;;;;;;18.72;56.89;100195.28;4899015;29;20056;-77
2023/09/15 09:07:22;;;;;;;8.20;3.40;;;;;;;18.80;57.03;100204.47;4898951;29;20091;-77
2023/09/15 09:09:49;;;;;;;8.90;3.83;;;;;;;18.86;56.89;100204.78;4898842;29;20052;-79
2023/09/15 09:12:20;;;;;;;7.40;3.60;;;;;;;18.93;56.70;100204.25;4898407;29;20593;-79
2023/09/15 09:14:49;;;;;;;9.23;3.80;;;;;;;19.01;57.20;100199.97;4882261;29;20049;-78
2023/09/15 09:17:18;;;;;;;5.55;3.58;;;;;;;19.08;57.48;100196.78;4898824;29;20493;-77
2023/09/15 09:19:47;;;;;;;8.52;3.90;;;;;;;19.16;57.00;100199.63;4898650;29;20057;-80
2023/09/15 09:22:19;;;;;;;8.02;3.78;;;;;;;19.23;57.40;100205.28;4898387;29;20056;-79
2023/09/15 09:24:55;;;;;;;5.72;3.40;;;;;;;19.30;57.11;100193.09;4898447;29;20060;-78
2023/09/15 09:27:33;;;;;;;9.00;3.45;;;;;;;19.39;56.97;100202.97;4898480;29;20310;-77
2023/09/15 09:29:59;;;;;;;5.72;3.08;;;;;;;19.51;56.93;100194.88;4881835;29;20048;-80
2023/09/15 09:32:26;;;;;;;5.70;3.75;;;;;;;19.58;56.83;100193.34;4898154;29;20062;-78
2023/09/15 09:34:53;;;;;;;5.40;3.72;;;;;;;19.65;56.96;100181.16;4898371;29;20056;-78
2023/09/15 09:37:26;;;;;;;5.15;3.65;;;;;;;19.73;56.82;100187.63;4898234;29;20053;-78
2023/09/15 09:39:53;;;;;;;6.95;3.17;;;;;;;19.83;56.71;100171.59;4898282;29;20490;-80
2023/09/15 09:42:23;;;;;;;6.78;3.17;;;;;;;19.90;56.61;100178.09;4897868;29;20059;-78
2023/09/15 09:44:52;;;;;;;6.32;3.35;;;;;;;20.00;56.53;100167.47;4898305;29;20076;-79
2023/09/15 09:47:21;;;;;;;5.65;3.15;;;;;;;20.10;56.49;100168.31;4898227;29;20103;-80
2023/09/15 09:49:50;;;;;;;4.97;3.30;;;;;;;20.18;56.80;100168.44;4898044;29;20103;-78
2023/09/15 09:52:18;;;;;;;6.88;3.92;;;;;;;20.30;56.63;100168.31;4897719;29;20140;-78
2023/09/15 09:54:49;;;;;;;5.28;3.20;;;;;;;20.38;56.80;100170.28;4897970;29;20549;-78
2023/09/15 09:57:16;;;;;;;6.35;3.60;;;;;;;20.51;56.81;100172.66;4881179;29;20482;-78
2023/09/15 09:59:44;;;;;;;7.85;3.60;;;;;;;20.62;56.69;100171.66;4897847;29;20048;-80
2023/09/15 10:02:11;;;;;;;7.32;3.50;;;;;;;20.74;56.07;100169.69;4880867;29;20101;-79
2023/09/15 10:04:38;;;;;;;6.97;3.72;;;;;;;20.86;56.13;100167.69;4897476;29;20101;-78
2023/09/15 10:07:04;;;;;;;8.75;3.55;;;;;;;20.98;55.99;100171.06;4897862;29;20480;-77
2023/09/15 10:09:31;;;;;;;8.88;3.22;;;;;;;21.09;56.15;100174.38;4897898;29;20056;-78
2023/09/15 10:11:59;;;;;;;6.32;3.38;;;;;;;21.24;56.49;100170.41;4897549;29;20080;-77
2023/09/15 10:14:26;;;;;;;5.53;3.00;;;;;;;21.38;56.24;100161.88;4880999;29;20067;-77
2023/09/15 10:16:53;;;;;;;7.05;3.40;;;;;;;21.52;56.25;100167.75;4880797;29;20080;-79
2023/09/15 10:19:20;;;;;;;6.30;3.28;;;;;;;21.68;55.90;100167.09;4897749;29;20108;-77
2023/09/15 10:21:47;;;;;;;6.07;3.03;;;;;;;21.85;55.91;100162.78;4897605;29;20085;-79
2023/09/15 10:24:15;;;;;;;5.30;3.22;;;;;;;22.00;55.25;100160.41;4897336;29;20060;-77
2023/09/15 10:26:42;;;;;;;4.38;2.58;;;;;;;22.18;55.23;100162.25;4897521;29;20087;-77
2023/09/15 10:29:15;;;;;;;9.32;2.70;;;;;;;22.32;53.88;100153.63;4897392;29;20151;-78
2023/09/15 10:31:46;;;;;;;6.65;2.67;;;;;;;22.46;52.95;100160.31;4897182;29;20053;-79
2023/09/15 10:34:14;;;;;;;4.78;2.50;;;;;;;22.61;53.86;100157.09;4897195;29;20145;-77
2023/09/15 10:36:42;;;;;;;5.43;2.63;;;;;;;22.72;52.71;100158.69;4897466;29;20048;-78
2023/09/15 10:39:14;;;;;;;5.88;2.65;;;;;;;22.81;53.72;100151.53;4897150;29;20060;-79
2023/09/15 10:41:43;;;;;;;4.15;2.10;;;;;;;22.91;53.89;100147.72;4897092;29;20497;-78
2023/09/15 10:44:10;;;;;;;5.00;2.35;;;;;;;23.04;53.24;100149.13;4896898;29;20041;-77
2023/09/15 10:46:39;;;;;;;6.43;2.78;;;;;;;23.16;52.86;100144.31;4880513;29;20060;-77
2023/09/15 10:49:17;;;;;;;6.05;2.75;;;;;;;23.28;52.12;100129.59;4880459;29;20053;-75
2023/09/15 10:52:02;;;;;;;7.03;2.90;;;;;;;23.42;52.47;100138.09;4896855;29;20064;-77
2023/09/15 10:54:34;;;;;;;5.53;2.65;;;;;;;23.60;51.13;100134.44;4896893;29;20055;-78
2023/09/15 10:57:02;;;;;;;4.65;2.65;;;;;;;23.76;51.28;100128.25;4896972;29;20044;-77
2023/09/15 10:59:29;;;;;;;7.60;2.67;;;;;;;23.92;51.52;100132.84;4897004;29;20052;-80
2023/09/15 11:01:56;;;;;;;6.70;2.90;;;;;;;24.11;52.43;100128.19;4880095;29;20108;-78
2023/09/15 11:04:22;;;;;;;5.53;2.63;;;;;;;24.35;51.92;100124.63;4896726;29;20056;-78
2023/09/15 11:06:51;;;;;;;4.50;2.65;;;;;;;24.70;53.84;100127.09;4896557;29;20052;-80
2023/09/15 11:09:19;;;;;;;5.90;2.30;;;;;;;25.14;53.27;100128.53;4896895;29;20091;-78
2023/09/15 11:11:50;;;;;;;6.07;2.58;;;;;;;25.72;52.54;100127.44;4896641;29;20056;-81
2023/09/15 11:14:21;;;;;;;5.95;1.98;;;;;;;26.44;51.23;100124.53;4896586;29;20094;-75
2023/09/15 11:16:50;;;;;;;3.37;2.17;;;;;;;27.19;51.28;100121.88;4895984;29;20056;-77
2023/09/15 11:19:18;;;;;;;3.78;2.30;;;;;;;27.96;49.15;100125.03;4896414;29;20292;-75
2023/09/15 11:21:46;;;;;;;4.22;2.10;;;;;;;28.71;48.79;100120.25;4879611;29;20060;-77
2023/09/15 11:24:13;;;;;;;3.03;2.00;;;;;;;29.41;47.17;100111.22;4879737;29;20056;-78
2023/09/15 11:26:52;;;;;;;3.35;1.95;;;;;;;30.12;44.24;100113.66;4896443;29;20205;-75
2023/09/15 11:29:26;;;;;;;4.15;2.05;;;;;;;30.77;41.38;100094.00;4879704;29;20159;-78
2023/09/15 11:31:54;;;;;;;5.40;2.00;;;;;;;31.38;42.04;100103.81;4896428;29;20045;-78
2023/09/15 11:34:20;;;;;;;4.25;2.03;;;;;;;31.92;42.08;100095.34;4896255;29;20147;-76
2023/09/15 11:36:49;;;;;;;4.80;2.03;;;;;;;32.44;40.16;100097.00;4896508;29;20060;-75